East Dereham, United Kingdom
Current Conditions -  °F | °C
As of 3:20 AM on Saturday 29 Nov 2014 (Local Time) from EGSH Reporting Station
Clear Clear  
Wind Chill: 50°   Ceiling: Unl
Heat Index: 50°   Visibility: 4mi
Dew Point: 48°   Wind: 10mph
Humidity: 94%   Direction: 90°E
Pressure: 29.83"   Gusts: NA
Location:  52.68°N, 0.93°E
Report Text: EGSH 290320Z AUTO 09009KT 7000 NCD 10/09 Q1010
Loading
Personal Weather Stations






























Interactive Weather Map New forecast layout! Learn more

10-Day Weather Forecast

Advertisements
Track Severe Weather on mobile